Terminal Aerodrome Forecast
Issued by NWS

Home | Current Version | Previous Version | Text Only | Print | Product List | Glossary On
Versions: 1 2 3 4 5 6 7 8 9 10 11 12 13 14 15 16 17 18 19 20 21 22 23
000
FTUS44 KLIX 302332
TAFHUM
TAF
KHUM 302332Z 3100/3124 VRB03KT P6SM SKC
      TEMPO 3109/3112 5SM BR
     FM311500 18005KT P6SM SCT040=

USA.gov is the U.S. government's official web portal to all federal, state and local government web resources and services.